sensor_id;sensor_type;location;lat;lon;timestamp;temperature;humidity
25346;DHT22;13300;51.032;3.710;2024-03-02T00:00:05;6.10;99.90
25346;DHT22;13300;51.032;3.710;2024-03-02T00:02:47;6.10;99.90
25346;DHT22;13300;51.032;3.710;2024-03-02T00:05:14;6.20;99.90
25346;DHT22;13300;51.032;3.710;2024-03-02T00:07:54;6.20;99.90
25346;DHT22;13300;51.032;3.710;2024-03-02T00:10:25;6.20;99.90
25346;DHT22;13300;51.032;3.710;2024-03-02T00:12:55;6.20;99.90
25346;DHT22;13300;51.032;3.710;2024-03-02T00:17:56;6.20;99.90
25346;DHT22;13300;51.032;3.710;2024-03-02T00:20:23;6.30;99.90
25346;DHT22;13300;51.032;3.710;2024-03-02T00:22:54;6.20;99.90
25346;DHT22;13300;51.032;3.710;2024-03-02T00:25:25;6.20;99.90
25346;DHT22;13300;51.032;3.710;2024-03-02T00:27:51;6.20;99.90
25346;DHT22;13300;51.032;3.710;2024-03-02T00:30:46;6.20;99.90
25346;DHT22;13300;51.032;3.710;2024-03-02T00:33:15;6.10;99.90
25346;DHT22;13300;51.032;3.710;2024-03-02T00:35:44;6.10;99.90
25346;DHT22;13300;51.032;3.710;2024-03-02T00:38:10;6.10;99.90
25346;DHT22;13300;51.032;3.710;2024-03-02T00:40:36;6.00;99.90
25346;DHT22;13300;51.032;3.710;2024-03-02T00:43:02;6.00;99.90
25346;DHT22;13300;51.032;3.710;2024-03-02T00:45:29;6.10;99.90
25346;DHT22;13300;51.032;3.710;2024-03-02T00:47:54;6.10;99.90
25346;DHT22;13300;51.032;3.710;2024-03-02T00:50:20;6.20;99.90
25346;DHT22;13300;51.032;3.710;2024-03-02T00:52:47;6.20;99.90
25346;DHT22;13300;51.032;3.710;2024-03-02T00:55:15;6.10;99.90
25346;DHT22;13300;51.032;3.710;2024-03-02T00:57:41;6.20;99.90
25346;DHT22;13300;51.032;3.710;2024-03-02T01:00:08;6.10;99.90
25346;DHT22;13300;51.032;3.710;2024-03-02T01:02:37;6.10;99.90
25346;DHT22;13300;51.032;3.710;2024-03-02T01:05:03;6.10;99.90
25346;DHT22;13300;51.032;3.710;2024-03-02T01:07:30;6.10;99.90
25346;DHT22;13300;51.032;3.710;2024-03-02T01:09:56;6.10;99.90
25346;DHT22;13300;51.032;3.710;2024-03-02T01:12:22;6.00;99.90
25346;DHT22;13300;51.032;3.710;2024-03-02T01:14:47;6.00;99.90
25346;DHT22;13300;51.032;3.710;2024-03-02T01:17:13;6.00;99.90
25346;DHT22;13300;51.032;3.710;2024-03-02T01:19:41;6.00;99.90
25346;DHT22;13300;51.032;3.710;2024-03-02T01:22:07;5.90;99.90
25346;DHT22;13300;51.032;3.710;2024-03-02T01:24:33;6.00;99.90
25346;DHT22;13300;51.032;3.710;2024-03-02T01:26:58;6.10;99.90
25346;DHT22;13300;51.032;3.710;2024-03-02T01:29:24;5.90;99.90
25346;DHT22;13300;51.032;3.710;2024-03-02T01:31:50;6.00;99.90
25346;DHT22;13300;51.032;3.710;2024-03-02T01:34:16;6.00;99.90
25346;DHT22;13300;51.032;3.710;2024-03-02T01:36:42;5.90;99.90
25346;DHT22;13300;51.032;3.710;2024-03-02T01:39:08;5.90;99.90
25346;DHT22;13300;51.032;3.710;2024-03-02T01:41:34;5.90;99.90
25346;DHT22;13300;51.032;3.710;2024-03-02T01:44:00;5.90;99.90
25346;DHT22;13300;51.032;3.710;2024-03-02T01:46:26;5.90;99.90
25346;DHT22;13300;51.032;3.710;2024-03-02T01:48:52;5.90;99.90
25346;DHT22;13300;51.032;3.710;2024-03-02T01:51:17;5.90;99.90
25346;DHT22;13300;51.032;3.710;2024-03-02T01:53:43;5.90;99.90
25346;DHT22;13300;51.032;3.710;2024-03-02T01:56:09;5.90;99.90
25346;DHT22;13300;51.032;3.710;2024-03-02T01:58:34;5.90;99.90
25346;DHT22;13300;51.032;3.710;2024-03-02T02:01:00;5.90;99.90
25346;DHT22;13300;51.032;3.710;2024-03-02T02:03:26;5.90;99.90
25346;DHT22;13300;51.032;3.710;2024-03-02T02:05:51;5.90;99.90
25346;DHT22;13300;51.032;3.710;2024-03-02T02:08:17;5.90;99.90
25346;DHT22;13300;51.032;3.710;2024-03-02T02:10:43;5.80;99.90
25346;DHT22;13300;51.032;3.710;2024-03-02T02:13:09;5.80;99.90
25346;DHT22;13300;51.032;3.710;2024-03-02T02:15:35;5.90;99.90
25346;DHT22;13300;51.032;3.710;2024-03-02T02:18:01;5.80;99.90
25346;DHT22;13300;51.032;3.710;2024-03-02T02:20:29;5.90;99.90
25346;DHT22;13300;51.032;3.710;2024-03-02T02:23:01;5.90;99.90
25346;DHT22;13300;51.032;3.710;2024-03-02T02:25:28;5.80;99.90
25346;DHT22;13300;51.032;3.710;2024-03-02T02:27:54;5.80;99.90
25346;DHT22;13300;51.032;3.710;2024-03-02T02:30:22;5.80;99.90
25346;DHT22;13300;51.032;3.710;2024-03-02T02:32:48;5.70;99.90
25346;DHT22;13300;51.032;3.710;2024-03-02T02:35:14;5.70;99.90
25346;DHT22;13300;51.032;3.710;2024-03-02T02:37:40;5.80;99.90
25346;DHT22;13300;51.032;3.710;2024-03-02T02:40:07;5.80;99.90
25346;DHT22;13300;51.032;3.710;2024-03-02T02:42:32;5.80;99.90
25346;DHT22;13300;51.032;3.710;2024-03-02T02:44:58;5.80;99.90
25346;DHT22;13300;51.032;3.710;2024-03-02T02:47:25;5.80;99.90
25346;DHT22;13300;51.032;3.710;2024-03-02T02:49:51;5.90;99.90
25346;DHT22;13300;51.032;3.710;2024-03-02T02:52:16;5.90;99.90
25346;DHT22;13300;51.032;3.710;2024-03-02T02:54:43;5.90;99.90
25346;DHT22;13300;51.032;3.710;2024-03-02T02:57:08;5.90;99.90
25346;DHT22;13300;51.032;3.710;2024-03-02T02:59:35;5.90;99.90
25346;DHT22;13300;51.032;3.710;2024-03-02T03:02:01;5.90;99.90
25346;DHT22;13300;51.032;3.710;2024-03-02T03:04:27;5.90;99.90
25346;DHT22;13300;51.032;3.710;2024-03-02T03:06:52;5.80;99.90
25346;DHT22;13300;51.032;3.710;2024-03-02T03:09:18;5.80;99.90
25346;DHT22;13300;51.032;3.710;2024-03-02T03:11:44;5.80;99.90
25346;DHT22;13300;51.032;3.710;2024-03-02T03:14:10;5.80;99.90
25346;DHT22;13300;51.032;3.710;2024-03-02T03:16:36;5.80;99.90
25346;DHT22;13300;51.032;3.710;2024-03-02T03:19:01;5.80;99.90
25346;DHT22;13300;51.032;3.710;2024-03-02T03:21:27;5.80;99.90
25346;DHT22;13300;51.032;3.710;2024-03-02T03:23:52;5.80;99.90
25346;DHT22;13300;51.032;3.710;2024-03-02T03:26:18;5.80;99.90
25346;DHT22;13300;51.032;3.710;2024-03-02T03:28:44;5.80;99.90
25346;DHT22;13300;51.032;3.710;2024-03-02T03:31:10;5.80;99.90
25346;DHT22;13300;51.032;3.710;2024-03-02T03:33:36;5.80;99.90
25346;DHT22;13300;51.032;3.710;2024-03-02T03:36:01;5.80;99.90
25346;DHT22;13300;51.032;3.710;2024-03-02T03:38:29;5.80;99.90
25346;DHT22;13300;51.032;3.710;2024-03-02T03:40:54;5.70;99.90
25346;DHT22;13300;51.032;3.710;2024-03-02T03:43:20;5.70;99.90
25346;DHT22;13300;51.032;3.710;2024-03-02T03:45:46;5.70;99.90
25346;DHT22;13300;51.032;3.710;2024-03-02T03:48:11;5.70;99.90
25346;DHT22;13300;51.032;3.710;2024-03-02T03:50:37;5.80;99.90
25346;DHT22;13300;51.032;3.710;2024-03-02T03:53:04;5.70;99.90
25346;DHT22;13300;51.032;3.710;2024-03-02T03:55:29;5.70;99.90
25346;DHT22;13300;51.032;3.710;2024-03-02T03:57:55;5.70;99.90
25346;DHT22;13300;51.032;3.710;2024-03-02T04:00:21;5.70;99.90
25346;DHT22;13300;51.032;3.710;2024-03-02T04:02:47;5.70;99.90
25346;DHT22;13300;51.032;3.710;2024-03-02T04:05:13;5.70;99.90
25346;DHT22;13300;51.032;3.710;2024-03-02T04:07:40;5.70;99.90
25346;DHT22;13300;51.032;3.710;2024-03-02T04:10:12;5.70;99.90
25346;DHT22;13300;51.032;3.710;2024-03-02T04:12:38;5.70;99.90
25346;DHT22;13300;51.032;3.710;2024-03-02T04:15:05;5.70;99.90
25346;DHT22;13300;51.032;3.710;2024-03-02T04:17:32;5.70;99.90
25346;DHT22;13300;51.032;3.710;2024-03-02T04:19:59;5.70;99.90
25346;DHT22;13300;51.032;3.710;2024-03-02T04:22:26;5.70;99.90
25346;DHT22;13300;51.032;3.710;2024-03-02T04:24:51;5.70;99.90
25346;DHT22;13300;51.032;3.710;2024-03-02T04:27:17;5.80;99.90
25346;DHT22;13300;51.032;3.710;2024-03-02T04:29:43;5.80;99.90
25346;DHT22;13300;51.032;3.710;2024-03-02T04:32:08;5.90;99.90
25346;DHT22;13300;51.032;3.710;2024-03-02T04:34:34;5.90;99.90
25346;DHT22;13300;51.032;3.710;2024-03-02T04:36:59;6.00;99.90
25346;DHT22;13300;51.032;3.710;2024-03-02T04:39:25;6.00;99.90
25346;DHT22;13300;51.032;3.710;2024-03-02T04:41:51;6.00;99.90
25346;DHT22;13300;51.032;3.710;2024-03-02T04:44:17;5.90;99.90
25346;DHT22;13300;51.032;3.710;2024-03-02T04:46:43;6.00;99.90
25346;DHT22;13300;51.032;3.710;2024-03-02T04:49:08;6.00;99.90
25346;DHT22;13300;51.032;3.710;2024-03-02T04:51:34;5.90;99.90
25346;DHT22;13300;51.032;3.710;2024-03-02T04:53:59;5.90;99.90
25346;DHT22;13300;51.032;3.710;2024-03-02T04:56:25;5.90;99.90
25346;DHT22;13300;51.032;3.710;2024-03-02T04:58:57;5.90;99.90
25346;DHT22;13300;51.032;3.710;2024-03-02T05:01:22;5.90;99.90
25346;DHT22;13300;51.032;3.710;2024-03-02T05:03:49;5.80;99.90
25346;DHT22;13300;51.032;3.710;2024-03-02T05:06:15;5.80;99.90
25346;DHT22;13300;51.032;3.710;2024-03-02T05:08:40;5.80;99.90
25346;DHT22;13300;51.032;3.710;2024-03-02T05:11:06;5.70;99.90
25346;DHT22;13300;51.032;3.710;2024-03-02T05:13:50;5.80;99.90
25346;DHT22;13300;51.032;3.710;2024-03-02T05:16:16;5.80;99.90
25346;DHT22;13300;51.032;3.710;2024-03-02T05:18:42;5.70;99.90
25346;DHT22;13300;51.032;3.710;2024-03-02T05:21:07;5.60;99.90
25346;DHT22;13300;51.032;3.710;2024-03-02T05:23:33;5.70;99.90
25346;DHT22;13300;51.032;3.710;2024-03-02T05:25:58;5.60;99.90
25346;DHT22;13300;51.032;3.710;2024-03-02T05:28:24;5.70;99.90
25346;DHT22;13300;51.032;3.710;2024-03-02T05:30:50;5.60;99.90
25346;DHT22;13300;51.032;3.710;2024-03-02T05:33:15;5.60;99.90
25346;DHT22;13300;51.032;3.710;2024-03-02T05:35:41;5.60;99.90
25346;DHT22;13300;51.032;3.710;2024-03-02T05:38:09;5.50;99.90
25346;DHT22;13300;51.032;3.710;2024-03-02T05:40:34;5.60;99.90
25346;DHT22;13300;51.032;3.710;2024-03-02T05:43:00;5.60;99.90
25346;DHT22;13300;51.032;3.710;2024-03-02T05:45:25;5.60;99.90
25346;DHT22;13300;51.032;3.710;2024-03-02T05:47:51;5.60;99.90
25346;DHT22;13300;51.032;3.710;2024-03-02T05:50:17;5.60;99.90
25346;DHT22;13300;51.032;3.710;2024-03-02T05:52:43;5.60;99.90
25346;DHT22;13300;51.032;3.710;2024-03-02T05:55:09;5.60;99.90
25346;DHT22;13300;51.032;3.710;2024-03-02T05:57:35;5.60;99.90
25346;DHT22;13300;51.032;3.710;2024-03-02T06:00:10;5.60;99.90
25346;DHT22;13300;51.032;3.710;2024-03-02T06:02:39;5.50;99.90
25346;DHT22;13300;51.032;3.710;2024-03-02T06:05:06;5.50;99.90
25346;DHT22;13300;51.032;3.710;2024-03-02T06:07:32;5.50;99.90
25346;DHT22;13300;51.032;3.710;2024-03-02T06:09:58;5.50;99.90
25346;DHT22;13300;51.032;3.710;2024-03-02T06:12:24;5.50;99.90
25346;DHT22;13300;51.032;3.710;2024-03-02T06:14:50;5.40;99.90
25346;DHT22;13300;51.032;3.710;2024-03-02T06:17:15;5.50;99.90
25346;DHT22;13300;51.032;3.710;2024-03-02T06:19:41;5.40;99.90
25346;DHT22;13300;51.032;3.710;2024-03-02T06:22:07;5.60;99.90
25346;DHT22;13300;51.032;3.710;2024-03-02T06:24:36;5.50;99.90
25346;DHT22;13300;51.032;3.710;2024-03-02T06:27:02;5.50;99.90
25346;DHT22;13300;51.032;3.710;2024-03-02T06:29:28;5.40;99.90
25346;DHT22;13300;51.032;3.710;2024-03-02T06:31:54;5.40;99.90
25346;DHT22;13300;51.032;3.710;2024-03-02T06:34:19;5.40;99.90
25346;DHT22;13300;51.032;3.710;2024-03-02T06:36:45;5.40;99.90
25346;DHT22;13300;51.032;3.710;2024-03-02T06:39:11;5.40;99.90
25346;DHT22;13300;51.032;3.710;2024-03-02T06:41:38;5.40;99.90
25346;DHT22;13300;51.032;3.710;2024-03-02T06:44:03;5.40;99.90
25346;DHT22;13300;51.032;3.710;2024-03-02T06:46:29;5.40;99.90
25346;DHT22;13300;51.032;3.710;2024-03-02T06:48:55;5.40;99.90
25346;DHT22;13300;51.032;3.710;2024-03-02T06:51:20;5.40;99.90
25346;DHT22;13300;51.032;3.710;2024-03-02T06:53:46;5.50;99.90
25346;DHT22;13300;51.032;3.710;2024-03-02T06:56:12;5.60;99.90
25346;DHT22;13300;51.032;3.710;2024-03-02T06:58:38;5.60;99.90
25346;DHT22;13300;51.032;3.710;2024-03-02T07:01:03;5.80;99.90
25346;DHT22;13300;51.032;3.710;2024-03-02T07:03:29;5.80;99.90
25346;DHT22;13300;51.032;3.710;2024-03-02T07:05:54;6.00;99.90
25346;DHT22;13300;51.032;3.710;2024-03-02T07:08:20;6.20;99.90
25346;DHT22;13300;51.032;3.710;2024-03-02T07:10:46;6.50;99.90
25346;DHT22;13300;51.032;3.710;2024-03-02T07:13:12;7.00;99.90
25346;DHT22;13300;51.032;3.710;2024-03-02T07:15:38;7.40;99.90
25346;DHT22;13300;51.032;3.710;2024-03-02T07:18:16;7.50;99.90
25346;DHT22;13300;51.032;3.710;2024-03-02T07:20:42;7.80;99.90
25346;DHT22;13300;51.032;3.710;2024-03-02T07:23:07;8.00;99.90
25346;DHT22;13300;51.032;3.710;2024-03-02T07:25:34;8.20;99.90
25346;DHT22;13300;51.032;3.710;2024-03-02T07:27:59;8.50;99.90
25346;DHT22;13300;51.032;3.710;2024-03-02T07:30:25;8.70;99.90
25346;DHT22;13300;51.032;3.710;2024-03-02T07:32:51;8.90;99.90
25346;DHT22;13300;51.032;3.710;2024-03-02T07:35:16;8.90;99.90
25346;DHT22;13300;51.032;3.710;2024-03-02T07:37:43;9.00;99.90
25346;DHT22;13300;51.032;3.710;2024-03-02T07:40:10;9.50;99.90
25346;DHT22;13300;51.032;3.710;2024-03-02T07:42:40;9.50;99.90
25346;DHT22;13300;51.032;3.710;2024-03-02T07:45:06;9.60;99.90
25346;DHT22;13300;51.032;3.710;2024-03-02T07:47:33;9.60;99.90
25346;DHT22;13300;51.032;3.710;2024-03-02T07:49:59;9.90;99.90
25346;DHT22;13300;51.032;3.710;2024-03-02T07:52:25;9.80;99.90
25346;DHT22;13300;51.032;3.710;2024-03-02T07:54:51;10.20;99.90
25346;DHT22;13300;51.032;3.710;2024-03-02T07:57:16;10.60;99.90
25346;DHT22;13300;51.032;3.710;2024-03-02T07:59:42;10.70;99.90
25346;DHT22;13300;51.032;3.710;2024-03-02T08:02:08;10.90;99.90
25346;DHT22;13300;51.032;3.710;2024-03-02T08:04:34;10.70;99.90
25346;DHT22;13300;51.032;3.710;2024-03-02T08:07:00;10.90;99.90
25346;DHT22;13300;51.032;3.710;2024-03-02T08:09:25;10.60;99.90
25346;DHT22;13300;51.032;3.710;2024-03-02T08:11:51;10.50;99.90
25346;DHT22;13300;51.032;3.710;2024-03-02T08:14:17;10.50;99.90
25346;DHT22;13300;51.032;3.710;2024-03-02T08:16:42;10.70;99.90
25346;DHT22;13300;51.032;3.710;2024-03-02T08:19:08;11.00;99.90
25346;DHT22;13300;51.032;3.710;2024-03-02T08:21:35;11.30;99.90
25346;DHT22;13300;51.032;3.710;2024-03-02T08:24:02;11.30;99.90
25346;DHT22;13300;51.032;3.710;2024-03-02T08:26:28;11.70;99.90
25346;DHT22;13300;51.032;3.710;2024-03-02T08:28:55;11.70;99.90
25346;DHT22;13300;51.032;3.710;2024-03-02T08:31:21;12.00;99.90
25346;DHT22;13300;51.032;3.710;2024-03-02T08:33:46;11.80;99.90
25346;DHT22;13300;51.032;3.710;2024-03-02T08:36:12;12.30;99.90
25346;DHT22;13300;51.032;3.710;2024-03-02T08:38:38;12.60;99.90
25346;DHT22;13300;51.032;3.710;2024-03-02T08:41:04;12.60;99.90
25346;DHT22;13300;51.032;3.710;2024-03-02T08:43:30;13.00;99.90
25346;DHT22;13300;51.032;3.710;2024-03-02T08:45:56;12.60;99.90
25346;DHT22;13300;51.032;3.710;2024-03-02T08:48:22;12.30;99.90
25346;DHT22;13300;51.032;3.710;2024-03-02T08:50:47;12.90;99.90
25346;DHT22;13300;51.032;3.710;2024-03-02T08:53:13;12.40;99.90
25346;DHT22;13300;51.032;3.710;2024-03-02T08:55:45;11.70;99.90
25346;DHT22;13300;51.032;3.710;2024-03-02T08:58:13;10.90;99.90
25346;DHT22;13300;51.032;3.710;2024-03-02T09:00:39;10.30;99.90
25346;DHT22;13300;51.032;3.710;2024-03-02T09:03:04;10.10;99.90
25346;DHT22;13300;51.032;3.710;2024-03-02T09:05:30;10.30;99.90
25346;DHT22;13300;51.032;3.710;2024-03-02T09:07:56;10.50;99.90
25346;DHT22;13300;51.032;3.710;2024-03-02T09:10:22;10.90;99.90
25346;DHT22;13300;51.032;3.710;2024-03-02T09:12:47;11.30;99.90
25346;DHT22;13300;51.032;3.710;2024-03-02T09:15:13;11.70;99.90
25346;DHT22;13300;51.032;3.710;2024-03-02T09:17:39;11.40;99.90
25346;DHT22;13300;51.032;3.710;2024-03-02T09:20:06;11.70;99.90
25346;DHT22;13300;51.032;3.710;2024-03-02T09:22:31;11.40;99.90
25346;DHT22;13300;51.032;3.710;2024-03-02T09:24:57;11.00;99.90
25346;DHT22;13300;51.032;3.710;2024-03-02T09:27:23;10.70;99.90
25346;DHT22;13300;51.032;3.710;2024-03-02T09:29:49;10.30;99.90
25346;DHT22;13300;51.032;3.710;2024-03-02T09:32:15;10.40;99.90
25346;DHT22;13300;51.032;3.710;2024-03-02T09:34:41;10.20;99.90
25346;DHT22;13300;51.032;3.710;2024-03-02T09:37:14;10.80;99.90
25346;DHT22;13300;51.032;3.710;2024-03-02T09:39:40;12.10;99.90
25346;DHT22;13300;51.032;3.710;2024-03-02T09:42:05;13.20;99.90
25346;DHT22;13300;51.032;3.710;2024-03-02T09:44:31;13.80;99.90
25346;DHT22;13300;51.032;3.710;2024-03-02T09:46:58;14.40;99.90
25346;DHT22;13300;51.032;3.710;2024-03-02T09:49:24;14.90;99.90
25346;DHT22;13300;51.032;3.710;2024-03-02T09:51:50;13.70;99.90
25346;DHT22;13300;51.032;3.710;2024-03-02T09:54:16;13.40;99.90
25346;DHT22;13300;51.032;3.710;2024-03-02T09:56:44;13.50;99.90
25346;DHT22;13300;51.032;3.710;2024-03-02T09:59:09;14.40;99.90
25346;DHT22;13300;51.032;3.710;2024-03-02T10:01:35;14.50;99.90
25346;DHT22;13300;51.032;3.710;2024-03-02T10:04:01;14.00;99.90
25346;DHT22;13300;51.032;3.710;2024-03-02T10:06:32;13.60;99.90
25346;DHT22;13300;51.032;3.710;2024-03-02T10:08:58;12.40;99.90
25346;DHT22;13300;51.032;3.710;2024-03-02T10:14:10;12.10;99.90
25346;DHT22;13300;51.032;3.710;2024-03-02T10:16:38;12.10;99.90
25346;DHT22;13300;51.032;3.710;2024-03-02T10:19:33;11.90;99.90
25346;DHT22;13300;51.032;3.710;2024-03-02T10:22:01;11.30;99.90
25346;DHT22;13300;51.032;3.710;2024-03-02T10:24:41;11.20;99.90
25346;DHT22;13300;51.032;3.710;2024-03-02T10:29:41;11.80;99.90
25346;DHT22;13300;51.032;3.710;2024-03-02T10:32:10;11.70;99.90
25346;DHT22;13300;51.032;3.710;2024-03-02T10:34:39;12.00;99.90
25346;DHT22;13300;51.032;3.710;2024-03-02T10:37:05;11.90;99.90
25346;DHT22;13300;51.032;3.710;2024-03-02T10:39:33;11.80;99.90
25346;DHT22;13300;51.032;3.710;2024-03-02T10:42:02;11.80;99.90
25346;DHT22;13300;51.032;3.710;2024-03-02T10:44:29;11.80;99.90
25346;DHT22;13300;51.032;3.710;2024-03-02T10:46:55;11.60;99.90
25346;DHT22;13300;51.032;3.710;2024-03-02T10:49:23;11.80;99.90
25346;DHT22;13300;51.032;3.710;2024-03-02T10:51:49;11.70;99.90
25346;DHT22;13300;51.032;3.710;2024-03-02T10:54:15;11.60;99.90
25346;DHT22;13300;51.032;3.710;2024-03-02T10:56:43;11.50;99.90
25346;DHT22;13300;51.032;3.710;2024-03-02T10:59:27;11.50;99.90
25346;DHT22;13300;51.032;3.710;2024-03-02T11:02:00;11.60;99.90
25346;DHT22;13300;51.032;3.710;2024-03-02T11:04:28;12.30;99.90
25346;DHT22;13300;51.032;3.710;2024-03-02T11:07:14;13.30;99.90
25346;DHT22;13300;51.032;3.710;2024-03-02T11:09:47;13.60;99.90
25346;DHT22;13300;51.032;3.710;2024-03-02T11:12:28;14.30;99.90
25346;DHT22;13300;51.032;3.710;2024-03-02T11:14:56;14.20;99.90
25346;DHT22;13300;51.032;3.710;2024-03-02T11:17:22;13.60;99.90
25346;DHT22;13300;51.032;3.710;2024-03-02T11:19:49;13.50;99.90
25346;DHT22;13300;51.032;3.710;2024-03-02T11:22:15;13.70;99.90
25346;DHT22;13300;51.032;3.710;2024-03-02T11:24:51;14.10;99.90
25346;DHT22;13300;51.032;3.710;2024-03-02T11:33:00;13.90;99.90
25346;DHT22;13300;51.032;3.710;2024-03-02T11:35:31;13.70;99.90
25346;DHT22;13300;51.032;3.710;2024-03-02T11:37:57;13.00;99.90
25346;DHT22;13300;51.032;3.710;2024-03-02T11:40:28;13.00;99.90
25346;DHT22;13300;51.032;3.710;2024-03-02T11:42:54;13.30;99.90
25346;DHT22;13300;51.032;3.710;2024-03-02T11:45:27;13.30;99.90
25346;DHT22;13300;51.032;3.710;2024-03-02T11:47:57;13.20;99.90
25346;DHT22;13300;51.032;3.710;2024-03-02T11:50:29;13.00;99.90
25346;DHT22;13300;51.032;3.710;2024-03-02T11:52:56;12.80;99.90
25346;DHT22;13300;51.032;3.710;2024-03-02T11:55:27;12.60;99.90
25346;DHT22;13300;51.032;3.710;2024-03-02T11:57:54;12.20;99.90
25346;DHT22;13300;51.032;3.710;2024-03-02T12:00:20;11.70;99.90
25346;DHT22;13300;51.032;3.710;2024-03-02T12:03:00;11.60;99.90
25346;DHT22;13300;51.032;3.710;2024-03-02T12:05:27;11.40;99.90
25346;DHT22;13300;51.032;3.710;2024-03-02T12:08:04;11.00;99.90
25346;DHT22;13300;51.032;3.710;2024-03-02T12:10:31;11.00;99.90
25346;DHT22;13300;51.032;3.710;2024-03-02T12:13:01;10.90;99.90
25346;DHT22;13300;51.032;3.710;2024-03-02T12:15:33;10.80;99.90
25346;DHT22;13300;51.032;3.710;2024-03-02T12:18:00;10.90;99.90
25346;DHT22;13300;51.032;3.710;2024-03-02T12:20:28;10.80;99.90
25346;DHT22;13300;51.032;3.710;2024-03-02T12:22:57;10.70;99.90
25346;DHT22;13300;51.032;3.710;2024-03-02T12:25:24;10.70;99.90
25346;DHT22;13300;51.032;3.710;2024-03-02T12:27:51;10.80;99.90
25346;DHT22;13300;51.032;3.710;2024-03-02T12:30:18;10.90;99.90
25346;DHT22;13300;51.032;3.710;2024-03-02T12:32:45;11.00;99.90
25346;DHT22;13300;51.032;3.710;2024-03-02T12:35:11;10.90;99.90
25346;DHT22;13300;51.032;3.710;2024-03-02T12:37:48;10.90;99.90
25346;DHT22;13300;51.032;3.710;2024-03-02T12:40:14;10.90;99.90
25346;DHT22;13300;51.032;3.710;2024-03-02T12:42:43;10.70;99.90
25346;DHT22;13300;51.032;3.710;2024-03-02T12:45:09;10.80;99.90
25346;DHT22;13300;51.032;3.710;2024-03-02T12:47:35;10.60;99.90
25346;DHT22;13300;51.032;3.710;2024-03-02T12:50:02;10.60;99.90
25346;DHT22;13300;51.032;3.710;2024-03-02T12:52:28;10.60;99.90
25346;DHT22;13300;51.032;3.710;2024-03-02T12:54:54;10.40;99.90
25346;DHT22;13300;51.032;3.710;2024-03-02T12:57:31;10.40;99.90
25346;DHT22;13300;51.032;3.710;2024-03-02T12:59:58;10.30;99.90
25346;DHT22;13300;51.032;3.710;2024-03-02T13:02:28;10.20;99.90
25346;DHT22;13300;51.032;3.710;2024-03-02T13:04:53;10.10;99.90
25346;DHT22;13300;51.032;3.710;2024-03-02T13:07:20;10.20;99.90
25346;DHT22;13300;51.032;3.710;2024-03-02T13:09:48;10.10;99.90
25346;DHT22;13300;51.032;3.710;2024-03-02T13:12:19;10.10;99.90
25346;DHT22;13300;51.032;3.710;2024-03-02T13:14:48;10.00;99.90
25346;DHT22;13300;51.032;3.710;2024-03-02T13:17:14;10.00;99.90
25346;DHT22;13300;51.032;3.710;2024-03-02T13:20:04;10.00;99.90
25346;DHT22;13300;51.032;3.710;2024-03-02T13:22:33;9.90;99.90
25346;DHT22;13300;51.032;3.710;2024-03-02T13:24:59;9.90;99.90
25346;DHT22;13300;51.032;3.710;2024-03-02T13:27:27;10.00;99.90
25346;DHT22;13300;51.032;3.710;2024-03-02T13:29:52;9.90;99.90
25346;DHT22;13300;51.032;3.710;2024-03-02T13:32:19;10.00;99.90
25346;DHT22;13300;51.032;3.710;2024-03-02T13:34:49;10.10;99.90
25346;DHT22;13300;51.032;3.710;2024-03-02T13:37:15;10.20;99.90
25346;DHT22;13300;51.032;3.710;2024-03-02T13:39:41;10.30;99.90
25346;DHT22;13300;51.032;3.710;2024-03-02T13:42:08;10.50;99.90
25346;DHT22;13300;51.032;3.710;2024-03-02T13:44:35;10.50;99.90
25346;DHT22;13300;51.032;3.710;2024-03-02T13:47:01;10.50;99.90
25346;DHT22;13300;51.032;3.710;2024-03-02T13:49:27;10.60;99.90
25346;DHT22;13300;51.032;3.710;2024-03-02T13:52:00;10.50;99.90
25346;DHT22;13300;51.032;3.710;2024-03-02T13:54:29;10.60;99.90
25346;DHT22;13300;51.032;3.710;2024-03-02T13:56:56;10.50;99.90
25346;DHT22;13300;51.032;3.710;2024-03-02T13:59:23;10.50;99.90
25346;DHT22;13300;51.032;3.710;2024-03-02T14:01:49;10.60;99.90
25346;DHT22;13300;51.032;3.710;2024-03-02T14:04:15;10.50;99.90
25346;DHT22;13300;51.032;3.710;2024-03-02T14:06:43;10.50;99.90
25346;DHT22;13300;51.032;3.710;2024-03-02T14:09:09;10.60;99.90
25346;DHT22;13300;51.032;3.710;2024-03-02T14:11:34;10.50;99.90
25346;DHT22;13300;51.032;3.710;2024-03-02T14:14:01;10.50;99.90
25346;DHT22;13300;51.032;3.710;2024-03-02T14:16:27;10.70;99.90
25346;DHT22;13300;51.032;3.710;2024-03-02T14:18:53;10.60;99.90
25346;DHT22;13300;51.032;3.710;2024-03-02T14:21:19;10.60;99.90
25346;DHT22;13300;51.032;3.710;2024-03-02T14:23:45;10.70;99.90
25346;DHT22;13300;51.032;3.710;2024-03-02T14:26:10;10.60;99.90
25346;DHT22;13300;51.032;3.710;2024-03-02T14:28:36;10.50;99.90
25346;DHT22;13300;51.032;3.710;2024-03-02T14:31:02;10.30;99.90
25346;DHT22;13300;51.032;3.710;2024-03-02T14:33:28;10.30;99.90
25346;DHT22;13300;51.032;3.710;2024-03-02T14:35:54;10.30;99.90
25346;DHT22;13300;51.032;3.710;2024-03-02T14:38:20;10.20;99.90
25346;DHT22;13300;51.032;3.710;2024-03-02T14:40:46;10.40;99.90
25346;DHT22;13300;51.032;3.710;2024-03-02T14:43:11;10.30;99.90
25346;DHT22;13300;51.032;3.710;2024-03-02T14:45:37;10.40;99.90
25346;DHT22;13300;51.032;3.710;2024-03-02T14:48:04;10.40;99.90
25346;DHT22;13300;51.032;3.710;2024-03-02T14:50:30;10.30;99.90
25346;DHT22;13300;51.032;3.710;2024-03-02T14:52:55;10.40;99.90
25346;DHT22;13300;51.032;3.710;2024-03-02T14:55:25;10.70;99.90
25346;DHT22;13300;51.032;3.710;2024-03-02T14:57:51;10.70;99.90
25346;DHT22;13300;51.032;3.710;2024-03-02T15:00:17;10.50;99.90
25346;DHT22;13300;51.032;3.710;2024-03-02T15:02:43;10.60;99.90
25346;DHT22;13300;51.032;3.710;2024-03-02T15:05:09;10.80;99.90
25346;DHT22;13300;51.032;3.710;2024-03-02T15:07:34;10.80;99.90
25346;DHT22;13300;51.032;3.710;2024-03-02T15:10:00;10.90;99.90
25346;DHT22;13300;51.032;3.710;2024-03-02T15:12:26;10.80;99.90
25346;DHT22;13300;51.032;3.710;2024-03-02T15:14:52;10.80;99.90
25346;DHT22;13300;51.032;3.710;2024-03-02T15:17:17;10.80;99.90
25346;DHT22;13300;51.032;3.710;2024-03-02T15:19:44;11.00;99.90
25346;DHT22;13300;51.032;3.710;2024-03-02T15:22:11;11.10;99.90
25346;DHT22;13300;51.032;3.710;2024-03-02T15:24:37;11.10;99.90
25346;DHT22;13300;51.032;3.710;2024-03-02T15:27:03;10.90;99.90
25346;DHT22;13300;51.032;3.710;2024-03-02T15:29:34;10.80;99.90
25346;DHT22;13300;51.032;3.710;2024-03-02T15:32:00;10.80;99.90
25346;DHT22;13300;51.032;3.710;2024-03-02T15:34:26;10.80;99.90
25346;DHT22;13300;51.032;3.710;2024-03-02T15:36:52;10.80;99.90
25346;DHT22;13300;51.032;3.710;2024-03-02T15:39:18;10.80;99.90
25346;DHT22;13300;51.032;3.710;2024-03-02T15:41:44;10.80;99.90
25346;DHT22;13300;51.032;3.710;2024-03-02T15:44:10;10.80;99.90
25346;DHT22;13300;51.032;3.710;2024-03-02T15:46:36;10.90;99.90
25346;DHT22;13300;51.032;3.710;2024-03-02T15:49:02;10.90;99.90